createdAt,value
2018-12-30T00:00:44.220Z,100624.91
2018-12-30T00:03:11.640Z,100622.28
2018-12-30T00:05:39.180Z,100614.83
2018-12-30T00:08:06.626Z,100622.72
2018-12-30T00:10:34.069Z,100632.48
2018-12-30T00:13:01.532Z,100633.06
2018-12-30T00:15:29.009Z,100621.73
2018-12-30T00:17:56.490Z,100634.40
2018-12-30T00:20:23.956Z,100633.95
2018-12-30T00:22:51.457Z,100651.94
2018-12-30T00:25:18.922Z,100634.13
2018-12-30T00:27:46.360Z,100638.32
2018-12-30T00:30:13.803Z,100645.05
2018-12-30T00:32:41.282Z,100660.70
2018-12-30T00:35:08.801Z,100671.59
2018-12-30T00:37:36.206Z,100683.30
2018-12-30T00:40:03.706Z,100690.80
2018-12-30T00:42:31.165Z,100683.30
2018-12-30T00:44:58.631Z,100679.43
2018-12-30T00:47:26.081Z,100684.97
2018-12-30T00:49:53.588Z,100688.63
2018-12-30T00:52:21.052Z,100697.34
2018-12-30T00:54:48.587Z,100688.83
2018-12-30T00:57:16.027Z,100708.67
2018-12-30T00:59:43.514Z,100702.87
2018-12-30T01:02:10.947Z,100705.58
2018-12-30T01:04:38.418Z,100708.73
2018-12-30T01:07:05.878Z,100718.60
2018-12-30T01:09:33.349Z,100719.84
2018-12-30T01:12:00.905Z,100722.20
2018-12-30T01:14:28.386Z,100728.50
2018-12-30T01:16:55.853Z,100730.11
2018-12-30T01:19:23.287Z,100736.23
2018-12-30T01:21:50.759Z,100737.46
2018-12-30T01:24:18.219Z,100733.30
2018-12-30T01:26:45.685Z,100736.52
2018-12-30T01:29:13.159Z,100745.23
2018-12-30T01:31:40.622Z,100739.06
2018-12-30T01:34:08.089Z,100751.27
2018-12-30T01:36:37.762Z,100747.38
2018-12-30T01:39:05.203Z,100752.03
2018-12-30T01:41:32.674Z,100760.53
2018-12-30T01:44:00.155Z,100764.55
2018-12-30T01:46:27.598Z,100769.30
2018-12-30T01:48:55.341Z,100776.33
2018-12-30T01:51:23.023Z,100783.79
2018-12-30T01:53:50.711Z,100788.67
2018-12-30T01:56:18.353Z,100784.37
2018-12-30T01:58:47.320Z,100780.69
2018-12-30T02:01:14.779Z,100777.70
2018-12-30T02:03:42.443Z,100776.52
2018-12-30T02:06:09.950Z,100774.67
2018-12-30T02:08:37.411Z,100786.59
2018-12-30T02:11:04.884Z,100791.61
2018-12-30T02:13:32.449Z,100805.97
2018-12-30T02:16:00.698Z,100801.27
2018-12-30T02:18:28.225Z,100817.28
2018-12-30T02:20:55.682Z,100820.78
2018-12-30T02:23:23.343Z,100829.31
2018-12-30T02:25:50.937Z,100838.14
2018-12-30T02:28:18.429Z,100836.38
2018-12-30T02:30:45.901Z,100840.20
2018-12-30T02:33:13.371Z,100844.04
2018-12-30T02:35:40.851Z,100855.27
2018-12-30T02:38:08.299Z,100853.11
2018-12-30T02:40:35.832Z,100856.05
2018-12-30T02:43:03.322Z,100848.24
2018-12-30T02:45:30.789Z,100846.02
2018-12-30T02:47:58.277Z,100849.72
2018-12-30T02:50:25.897Z,100847.80
2018-12-30T02:52:53.344Z,100843.37
2018-12-30T02:55:20.928Z,100848.16
2018-12-30T02:57:48.355Z,100854.52
2018-12-30T03:00:15.813Z,100844.13
2018-12-30T03:02:43.251Z,100852.56
2018-12-30T03:05:10.721Z,100852.81
2018-12-30T03:07:38.179Z,100852.18
2018-12-30T03:10:05.636Z,100854.33
2018-12-30T03:12:33.096Z,100851.64
2018-12-30T03:15:00.558Z,100855.05
2018-12-30T03:17:27.995Z,100852.25
2018-12-30T03:19:55.455Z,100860.16
2018-12-30T03:22:22.922Z,100864.69
2018-12-30T03:24:50.399Z,100867.77
2018-12-30T03:27:17.817Z,100866.59
2018-12-30T03:29:45.282Z,100857.89
2018-12-30T03:32:15.074Z,100858.87
2018-12-30T03:34:42.547Z,100863.94
2018-12-30T03:37:10.005Z,100868.36
2018-12-30T03:39:37.446Z,100879.63
2018-12-30T03:42:04.912Z,100870.30
2018-12-30T03:44:32.328Z,100892.23
2018-12-30T03:46:59.770Z,100888.11
2018-12-30T03:49:27.251Z,100892.77
2018-12-30T03:51:54.718Z,100892.88
2018-12-30T03:54:22.158Z,100893.81
2018-12-30T03:56:49.594Z,100884.72
2018-12-30T03:59:17.015Z,100894.77
2018-12-30T04:01:44.474Z,100899.12
2018-12-30T04:04:11.916Z,100899.93
2018-12-30T04:06:40.106Z,100896.07
2018-12-30T04:09:09.205Z,100905.60
2018-12-30T04:11:36.649Z,100901.76
2018-12-30T04:14:04.114Z,100894.69
2018-12-30T04:16:31.528Z,100889.19
2018-12-30T04:18:58.980Z,100886.64
2018-12-30T04:21:26.432Z,100896.53
2018-12-30T04:23:53.889Z,100898.92
2018-12-30T04:26:21.401Z,100897.65
2018-12-30T04:28:48.873Z,100906.43
2018-12-30T04:31:16.310Z,100904.09
2018-12-30T04:33:43.776Z,100918.70
2018-12-30T04:36:11.211Z,100919.27
2018-12-30T04:38:38.656Z,100920.06
2018-12-30T04:41:06.131Z,100920.80
2018-12-30T04:43:33.671Z,100917.33
2018-12-30T04:46:01.094Z,100924.72
2018-12-30T04:48:28.524Z,100927.91
2018-12-30T04:50:55.965Z,100930.98
2018-12-30T04:53:23.404Z,100938.72
2018-12-30T04:55:50.858Z,100948.92
2018-12-30T04:58:18.322Z,100954.71
2018-12-30T05:00:45.768Z,100945.05
2018-12-30T05:03:13.215Z,100933.69
2018-12-30T05:05:40.702Z,100925.00
2018-12-30T05:08:08.166Z,100945.50
2018-12-30T05:10:35.619Z,100965.66
2018-12-30T05:13:03.054Z,101003.42
2018-12-30T05:15:30.505Z,100980.25
2018-12-30T05:17:57.937Z,100949.17
2018-12-30T05:20:25.375Z,100898.98
2018-12-30T05:22:52.824Z,100913.23
2018-12-30T05:25:20.268Z,100957.88
2018-12-30T05:27:47.695Z,100983.81
2018-12-30T05:30:15.131Z,100962.50
2018-12-30T05:32:42.571Z,100931.20
2018-12-30T05:35:10.000Z,100949.08
2018-12-30T05:37:37.525Z,100974.21
2018-12-30T05:40:04.986Z,100965.50
2018-12-30T05:42:32.408Z,100970.59
2018-12-30T05:44:59.850Z,100964.61
2018-12-30T05:47:27.377Z,100955.88
2018-12-30T05:49:54.815Z,100946.23
2018-12-30T05:52:22.269Z,100960.09
2018-12-30T05:54:49.704Z,100970.38
2018-12-30T05:57:17.139Z,100950.20
2018-12-30T05:59:44.571Z,100962.59
2018-12-30T06:02:11.991Z,100962.80
2018-12-30T06:04:39.431Z,100964.42
2018-12-30T06:07:06.894Z,100970.05
2018-12-30T06:09:34.316Z,100974.90
2018-12-30T06:12:01.790Z,100986.57
2018-12-30T06:14:29.250Z,100992.94
2018-12-30T06:16:56.691Z,101003.77
2018-12-30T06:19:24.145Z,100998.56
2018-12-30T06:21:51.583Z,101002.30
2018-12-30T06:24:19.024Z,101004.31
2018-12-30T06:26:46.464Z,101007.87
2018-12-30T06:29:13.935Z,101009.93
2018-12-30T06:31:41.386Z,101014.09
2018-12-30T06:34:11.335Z,101007.83
2018-12-30T06:36:38.770Z,101010.83
2018-12-30T06:39:08.081Z,101020.08
2018-12-30T06:41:35.524Z,101014.02
2018-12-30T06:44:02.923Z,101026.85
2018-12-30T06:46:30.362Z,101018.06
2018-12-30T06:48:57.829Z,101024.02
2018-12-30T06:51:25.284Z,101034.79
2018-12-30T06:53:52.739Z,101015.53
2018-12-30T06:56:20.164Z,101023.37
2018-12-30T06:58:47.604Z,101026.34
2018-12-30T07:01:15.098Z,101030.37
2018-12-30T07:03:42.496Z,101039.09
2018-12-30T07:06:09.921Z,101052.23
2018-12-30T07:08:37.377Z,101053.55
2018-12-30T07:11:04.838Z,101054.11
2018-12-30T07:13:32.301Z,101056.05
2018-12-30T07:15:59.726Z,101069.44
2018-12-30T07:18:27.215Z,101063.37
2018-12-30T07:20:55.492Z,101077.33
2018-12-30T07:23:23.059Z,101071.62
2018-12-30T07:25:50.491Z,101068.48
2018-12-30T07:28:17.967Z,101050.53
2018-12-30T07:30:45.401Z,101057.66
2018-12-30T07:33:15.554Z,101066.50
2018-12-30T07:35:43.001Z,101054.59
2018-12-30T07:38:10.445Z,101066.49
2018-12-30T07:40:37.925Z,101063.02
2018-12-30T07:43:05.384Z,101068.13
2018-12-30T07:45:32.844Z,101051.75
2018-12-30T07:48:00.272Z,101056.75
2018-12-30T07:50:27.731Z,101054.64
2018-12-30T07:52:55.157Z,101064.89
2018-12-30T07:55:22.593Z,101061.86
2018-12-30T07:57:50.059Z,101064.09
2018-12-30T08:00:17.527Z,101060.08
2018-12-30T08:02:44.951Z,101061.31
2018-12-30T08:05:12.401Z,101070.34
2018-12-30T08:07:39.853Z,101077.28
2018-12-30T08:10:07.275Z,101084.36
2018-12-30T08:12:34.727Z,101081.06
2018-12-30T08:15:02.172Z,101088.17
2018-12-30T08:17:29.639Z,101092.56
2018-12-30T08:19:57.070Z,101094.49
2018-12-30T08:22:24.503Z,101098.09
2018-12-30T08:24:52.141Z,101093.75
2018-12-30T08:27:19.581Z,101094.24
2018-12-30T08:29:47.034Z,101100.48
2018-12-30T08:32:14.468Z,101104.22
2018-12-30T08:34:41.999Z,101098.72
2018-12-30T08:37:09.427Z,101101.47
2018-12-30T08:39:36.991Z,101099.34
2018-12-30T08:42:04.434Z,101104.94
2018-12-30T08:44:31.943Z,101109.28
2018-12-30T08:46:59.388Z,101099.36
2018-12-30T08:49:26.884Z,101105.86
2018-12-30T08:51:54.301Z,101100.33
2018-12-30T08:54:21.753Z,101104.75
2018-12-30T08:56:49.253Z,101106.41
2018-12-30T08:59:16.689Z,101098.78
2018-12-30T09:01:44.125Z,101100.22
2018-12-30T09:04:11.587Z,101088.47
2018-12-30T09:06:39.789Z,101098.89
2018-12-30T09:09:07.221Z,101095.38
2018-12-30T09:11:34.699Z,101096.41
2018-12-30T09:14:02.179Z,101093.70
2018-12-30T09:16:29.592Z,101082.14
2018-12-30T09:18:57.049Z,101088.95
2018-12-30T09:21:24.576Z,101081.64
2018-12-30T09:23:52.007Z,101084.33
2018-12-30T09:26:19.451Z,101086.38
2018-12-30T09:28:46.863Z,101087.91
2018-12-30T09:31:14.325Z,101097.82
2018-12-30T09:33:41.815Z,101101.55
2018-12-30T09:36:09.231Z,101089.94
2018-12-30T09:38:36.674Z,101093.46
2018-12-30T09:41:04.132Z,101095.22
2018-12-30T09:43:31.565Z,101104.86
2018-12-30T09:45:59.013Z,101099.23
2018-12-30T09:48:33.780Z,101111.42
2018-12-30T09:50:54.663Z,101107.44
2018-12-30T09:53:22.101Z,101112.27
2018-12-30T09:55:49.553Z,101124.07
2018-12-30T09:58:17.033Z,101117.06
2018-12-30T10:00:44.478Z,101127.53
2018-12-30T10:03:11.926Z,101128.91
2018-12-30T10:05:39.370Z,101134.42
2018-12-30T10:08:06.809Z,101139.86
2018-12-30T10:10:34.277Z,101147.83
2018-12-30T10:13:01.717Z,101154.27
2018-12-30T10:15:29.159Z,101159.95
2018-12-30T10:17:56.645Z,101162.64
2018-12-30T10:20:24.063Z,101161.69
2018-12-30T10:22:58.658Z,101157.66
2018-12-30T10:25:18.975Z,101161.39
2018-12-30T10:27:46.444Z,101153.24
2018-12-30T10:30:13.861Z,101143.16
2018-12-30T10:32:41.291Z,101131.38
2018-12-30T10:35:08.742Z,101150.09
2018-12-30T10:37:36.163Z,101146.14
2018-12-30T10:40:03.618Z,101148.06
2018-12-30T10:42:31.053Z,101141.91
2018-12-30T10:44:58.501Z,101148.19
2018-12-30T10:47:25.939Z,101136.61
2018-12-30T10:49:53.419Z,101139.66
2018-12-30T10:52:20.854Z,101132.42
2018-12-30T10:54:48.329Z,101126.88
2018-12-30T10:57:16.537Z,101127.45
2018-12-30T10:59:44.055Z,101124.66
2018-12-30T11:02:11.499Z,101129.49
2018-12-30T11:04:38.937Z,101122.56
2018-12-30T11:07:06.396Z,101114.62
2018-12-30T11:09:34.093Z,101115.97
2018-12-30T11:12:01.544Z,101108.53
2018-12-30T11:14:28.984Z,101113.27
2018-12-30T11:16:56.441Z,101112.69
2018-12-30T11:19:23.935Z,101106.41
2018-12-30T11:21:51.372Z,101105.94
2018-12-30T11:24:18.825Z,101101.47
2018-12-30T11:26:46.276Z,101097.55
2018-12-30T11:29:13.730Z,101099.21
2018-12-30T11:31:41.174Z,101104.57
2018-12-30T11:34:08.622Z,101106.28
2018-12-30T11:36:36.054Z,101101.86
2018-12-30T11:39:03.537Z,101107.41
2018-12-30T11:41:30.970Z,101086.91
2018-12-30T11:43:58.409Z,101092.00
2018-12-30T11:46:25.871Z,101100.34
2018-12-30T11:48:53.288Z,101094.30
2018-12-30T11:51:20.787Z,101092.73
2018-12-30T11:53:48.232Z,101097.74
2018-12-30T11:56:17.524Z,101102.16
2018-12-30T11:58:44.957Z,101103.83
2018-12-30T12:01:12.401Z,101105.01
2018-12-30T12:03:39.861Z,101106.23
2018-12-30T12:06:07.279Z,101102.73
2018-12-30T12:08:34.733Z,101104.27
2018-12-30T12:11:02.156Z,101094.95
2018-12-30T12:13:29.624Z,101092.21
2018-12-30T12:15:57.058Z,101091.03
2018-12-30T12:18:25.300Z,101071.66
2018-12-30T12:20:52.851Z,101073.95
2018-12-30T12:23:20.284Z,101061.81
2018-12-30T12:25:47.713Z,101071.72
2018-12-30T12:28:15.151Z,101053.91
2018-12-30T12:30:43.574Z,101066.70
2018-12-30T12:33:11.088Z,101060.28
2018-12-30T12:35:38.549Z,101070.66
2018-12-30T12:38:06.007Z,101077.96
2018-12-30T12:40:33.451Z,101073.50
2018-12-30T12:43:00.899Z,101080.12
2018-12-30T12:45:30.035Z,101090.56
2018-12-30T12:47:57.578Z,101082.88
2018-12-30T12:50:25.009Z,101079.45
2018-12-30T12:52:52.443Z,101082.55
2018-12-30T12:55:19.868Z,101079.55
2018-12-30T12:57:47.332Z,101073.09
2018-12-30T13:00:14.794Z,101074.45
2018-12-30T13:02:42.280Z,101080.44
2018-12-30T13:05:09.708Z,101083.34
2018-12-30T13:07:38.067Z,101078.97
2018-12-30T13:10:05.581Z,101069.64
2018-12-30T13:12:33.018Z,101071.22
2018-12-30T13:15:00.487Z,101075.28
2018-12-30T13:17:27.967Z,101071.41
2018-12-30T13:19:55.431Z,101082.98
2018-12-30T13:22:22.864Z,101080.00
2018-12-30T13:24:50.290Z,101075.34
2018-12-30T13:27:17.771Z,101087.45
2018-12-30T13:29:45.223Z,101096.56
2018-12-30T13:32:12.706Z,101096.72
2018-12-30T13:34:40.212Z,101093.38
2018-12-30T13:37:07.854Z,101091.86
2018-12-30T13:39:35.365Z,101083.97
2018-12-30T13:42:02.843Z,101096.80
2018-12-30T13:44:30.290Z,101097.40
2018-12-30T13:46:57.740Z,101109.33
2018-12-30T13:49:25.206Z,101111.03
2018-12-30T13:51:53.327Z,101117.70
2018-12-30T13:54:20.148Z,101129.81
2018-12-30T13:56:47.682Z,101118.48
2018-12-30T13:59:16.203Z,101111.09
2018-12-30T14:01:45.370Z,101108.92
2018-12-30T14:04:17.266Z,101104.37
2018-12-30T14:06:44.935Z,101102.81
2018-12-30T14:09:12.361Z,101106.58
2018-12-30T14:11:39.875Z,101107.30
2018-12-30T14:14:07.307Z,101109.27
2018-12-30T14:16:34.779Z,101106.97
2018-12-30T14:19:02.241Z,101113.73
2018-12-30T14:21:29.689Z,101121.37
2018-12-30T14:23:57.151Z,101121.91
2018-12-30T14:26:24.612Z,101119.30
2018-12-30T14:28:52.046Z,101109.41
2018-12-30T14:31:19.491Z,101105.38
2018-12-30T14:33:46.939Z,101091.95
2018-12-30T14:36:14.386Z,101083.79
2018-12-30T14:38:44.083Z,101085.68
2018-12-30T14:41:11.511Z,101084.80
2018-12-30T14:43:38.969Z,101086.40
2018-12-30T14:46:06.430Z,101080.40
2018-12-30T14:48:33.892Z,101084.58
2018-12-30T14:51:01.382Z,101090.80
2018-12-30T14:53:28.814Z,101094.75
2018-12-30T14:55:56.328Z,101091.73
2018-12-30T14:58:23.788Z,101083.16
2018-12-30T15:00:51.216Z,101088.16
2018-12-30T15:03:18.703Z,101099.23
2018-12-30T15:05:46.152Z,101099.34
2018-12-30T15:08:13.613Z,101098.20
2018-12-30T15:10:41.071Z,101102.38
2018-12-30T15:13:08.511Z,101099.72
2018-12-30T15:15:35.956Z,101105.84
2018-12-30T15:18:03.407Z,101100.89
2018-12-30T15:20:30.837Z,101114.25
2018-12-30T15:22:58.290Z,101100.78
2018-12-30T15:25:25.746Z,101094.95
2018-12-30T15:27:53.194Z,101087.72
2018-12-30T15:30:20.672Z,101078.67
2018-12-30T15:32:48.121Z,101084.73
2018-12-30T15:35:15.554Z,101080.50
2018-12-30T15:37:44.420Z,101075.23
2018-12-30T15:40:12.007Z,101075.53
2018-12-30T15:42:39.463Z,101083.36
2018-12-30T15:45:06.882Z,101082.25
2018-12-30T15:47:34.334Z,101082.52
2018-12-30T15:50:01.768Z,101081.88
2018-12-30T15:52:29.212Z,101082.33
2018-12-30T15:54:56.627Z,101074.49
2018-12-30T15:57:24.075Z,101068.41
2018-12-30T15:59:51.513Z,101070.38
2018-12-30T16:02:18.977Z,101059.50
2018-12-30T16:04:46.393Z,101046.20
2018-12-30T16:07:13.887Z,101052.03
2018-12-30T16:09:41.345Z,101044.73
2018-12-30T16:12:08.779Z,101051.27
2018-12-30T16:14:36.257Z,101039.70
2018-12-30T16:17:03.682Z,101038.03
2018-12-30T16:19:31.134Z,101039.50
2018-12-30T16:21:58.574Z,101032.98
2018-12-30T16:24:26.041Z,101024.16
2018-12-30T16:26:53.491Z,101020.67
2018-12-30T16:29:20.926Z,101029.77
2018-12-30T16:31:48.386Z,101036.16
2018-12-30T16:34:16.685Z,101028.50
2018-12-30T16:36:44.253Z,101036.78
2018-12-30T16:39:11.698Z,101045.19
2018-12-30T16:41:39.144Z,101042.14
2018-12-30T16:44:06.652Z,101039.10
2018-12-30T16:46:34.187Z,101038.47
2018-12-30T16:49:01.560Z,101035.14
2018-12-30T16:51:29.009Z,101040.11
2018-12-30T16:53:56.446Z,101046.34
2018-12-30T16:56:23.907Z,101044.78
2018-12-30T16:58:51.345Z,101052.42
2018-12-30T17:01:18.793Z,101054.13
2018-12-30T17:03:46.249Z,101055.84
2018-12-30T17:06:14.534Z,101047.14
2018-12-30T17:08:41.235Z,101058.05
2018-12-30T17:11:08.695Z,101053.58
2018-12-30T17:13:36.161Z,101047.47
2018-12-30T17:16:03.625Z,101034.98
2018-12-30T17:18:31.071Z,101029.25
2018-12-30T17:20:59.205Z,101030.92
2018-12-30T17:23:26.803Z,101036.84
2018-12-30T17:25:54.245Z,101040.41
2018-12-30T17:28:21.697Z,101035.37
2018-12-30T17:30:49.144Z,101030.99
2018-12-30T17:33:16.591Z,101027.17
2018-12-30T17:35:44.028Z,101025.05
2018-12-30T17:38:11.493Z,101023.19
2018-12-30T17:40:38.959Z,101018.34
2018-12-30T17:43:06.409Z,101011.59
2018-12-30T17:45:34.930Z,101009.02
2018-12-30T17:48:02.437Z,101004.65
2018-12-30T17:50:30.581Z,101002.30
2018-12-30T17:52:58.023Z,101002.09
2018-12-30T17:55:25.499Z,101007.01
2018-12-30T17:57:52.956Z,101006.77
2018-12-30T18:00:20.386Z,101006.19
2018-12-30T18:02:47.837Z,101014.19
2018-12-30T18:05:15.270Z,101013.93
2018-12-30T18:07:42.738Z,101014.33
2018-12-30T18:10:10.198Z,101020.52
2018-12-30T18:12:39.397Z,101016.23
2018-12-30T18:15:06.893Z,101014.59
2018-12-30T18:17:41.178Z,101007.25
2018-12-30T18:20:01.852Z,101012.80
2018-12-30T18:22:29.273Z,101008.21
2018-12-30T18:24:56.721Z,101012.78
2018-12-30T18:27:24.175Z,101009.84
2018-12-30T18:29:51.625Z,101018.62
2018-12-30T18:32:19.113Z,101017.56
2018-12-30T18:34:46.556Z,101028.50
2018-12-30T18:37:14.002Z,101022.08
2018-12-30T18:39:41.463Z,101031.25
2018-12-30T18:42:08.913Z,101032.95
2018-12-30T18:44:36.367Z,101025.91
2018-12-30T18:47:03.799Z,101024.73
2018-12-30T18:49:31.219Z,101029.48
2018-12-30T18:51:58.687Z,101027.55
2018-12-30T18:54:26.142Z,101025.58
2018-12-30T18:56:53.581Z,101025.77
2018-12-30T18:59:20.995Z,101024.45
2018-12-30T19:01:48.454Z,101035.81
2018-12-30T19:04:15.924Z,101031.90
2018-12-30T19:06:43.372Z,101032.05
2018-12-30T19:09:10.841Z,101016.08
2018-12-30T19:11:38.276Z,101023.42
2018-12-30T19:14:05.714Z,101027.49
2018-12-30T19:16:33.177Z,101016.75
2018-12-30T19:19:00.641Z,101021.61
2018-12-30T19:21:28.203Z,101013.17
2018-12-30T19:23:55.636Z,101009.65
2018-12-30T19:26:23.079Z,101009.30
2018-12-30T19:28:50.526Z,101007.28
2018-12-30T19:31:17.988Z,101014.38
2018-12-30T19:33:45.479Z,101016.36
2018-12-30T19:36:12.901Z,101015.52
2018-12-30T19:41:30.913Z,101017.48
2018-12-30T19:43:58.351Z,101014.88
2018-12-30T19:46:25.809Z,101017.78
2018-12-30T19:48:53.253Z,101020.08
2018-12-30T19:51:20.687Z,101021.85
2018-12-30T19:53:48.162Z,101023.42
2018-12-30T19:56:21.858Z,101033.17
2018-12-30T19:58:43.057Z,101036.16
2018-12-30T20:01:10.479Z,101034.94
2018-12-30T20:03:37.931Z,101040.37
2018-12-30T20:06:05.379Z,101037.13
2018-12-30T20:08:32.847Z,101037.05
2018-12-30T20:11:00.295Z,101040.04
2018-12-30T20:13:27.740Z,101036.80
2018-12-30T20:15:55.188Z,101030.61
2018-12-30T20:18:22.623Z,101028.47
2018-12-30T20:20:50.051Z,101025.70
2018-12-30T20:23:18.253Z,101026.67
2018-12-30T20:25:45.744Z,101027.92
2018-12-30T20:28:13.217Z,101026.84
2018-12-30T20:30:40.694Z,101023.91
2018-12-30T20:33:08.128Z,101022.63
2018-12-30T20:35:35.585Z,101020.70
2018-12-30T20:38:03.067Z,101020.72
2018-12-30T20:40:30.496Z,101015.13
2018-12-30T20:42:57.939Z,101017.67
2018-12-30T20:45:25.398Z,101014.59
2018-12-30T20:47:52.869Z,101020.28
2018-12-30T20:50:20.319Z,101011.19
2018-12-30T20:52:47.779Z,101009.39
2018-12-30T20:55:15.212Z,101002.78
2018-12-30T20:57:42.666Z,101004.50
2018-12-30T21:00:10.162Z,100994.63
2018-12-30T21:02:37.638Z,100994.73
2018-12-30T21:05:05.092Z,100996.87
2018-12-30T21:07:32.634Z,100994.56
2018-12-30T21:10:00.191Z,100987.66
2018-12-30T21:12:27.669Z,100987.56
2018-12-30T21:14:55.091Z,100976.22
2018-12-30T21:17:22.558Z,100985.47
2018-12-30T21:19:50.000Z,100988.88
2018-12-30T21:22:17.527Z,100988.88
2018-12-30T21:24:45.151Z,100987.10
2018-12-30T21:27:12.633Z,100992.75
2018-12-30T21:29:40.218Z,100987.89
2018-12-30T21:32:07.646Z,100992.75
2018-12-30T21:34:35.078Z,100993.44
2018-12-30T21:37:02.721Z,100984.73
2018-12-30T21:39:30.216Z,100980.15
2018-12-30T21:41:57.670Z,100986.28
2018-12-30T21:44:25.165Z,100982.55
2018-12-30T21:46:52.705Z,100983.83
2018-12-30T21:49:20.143Z,100977.98
2018-12-30T21:51:47.602Z,100981.33
2018-12-30T21:54:15.086Z,100980.33
2018-12-30T21:56:42.854Z,100983.08
2018-12-30T21:59:10.326Z,100985.56
2018-12-30T22:01:37.802Z,100978.73
2018-12-30T22:04:05.241Z,100979.33
2018-12-30T22:06:32.703Z,100976.19
2018-12-30T22:09:00.147Z,100986.97
2018-12-30T22:11:27.633Z,100981.93
2018-12-30T22:13:55.828Z,100987.30
2018-12-30T22:16:23.315Z,100992.09
2018-12-30T22:18:50.800Z,100990.25
2018-12-30T22:21:18.290Z,100992.19
2018-12-30T22:23:45.750Z,100988.97
2018-12-30T22:26:13.216Z,100989.94
2018-12-30T22:28:40.671Z,100995.30
2018-12-30T22:31:08.193Z,100994.81
2018-12-30T22:33:35.685Z,100996.31
2018-12-30T22:36:03.111Z,100993.81
2018-12-30T22:38:30.681Z,101003.91
2018-12-30T22:40:59.151Z,101001.56
2018-12-30T22:43:26.674Z,101007.63
2018-12-30T22:45:54.347Z,101015.81
2018-12-30T22:48:21.803Z,101009.33
2018-12-30T22:50:49.243Z,101022.17
2018-12-30T22:53:17.624Z,101010.84
2018-12-30T22:55:45.085Z,101012.16
2018-12-30T22:58:12.662Z,101015.08
2018-12-30T23:00:45.570Z,101012.97
2018-12-30T23:03:13.062Z,101009.72
2018-12-30T23:05:40.538Z,101012.55
2018-12-30T23:08:08.016Z,101016.64
2018-12-30T23:10:35.455Z,101012.41
2018-12-30T23:13:03.082Z,101008.08
2018-12-30T23:15:30.523Z,101008.58
2018-12-30T23:17:57.985Z,101006.20
2018-12-30T23:20:25.537Z,101004.83
2018-12-30T23:22:52.986Z,101005.70
2018-12-30T23:25:20.470Z,100997.77
2018-12-30T23:27:47.906Z,100995.01
2018-12-30T23:30:15.337Z,101003.72
2018-12-30T23:32:42.814Z,100994.01
2018-12-30T23:35:10.332Z,100999.25
2018-12-30T23:37:37.787Z,100998.91
2018-12-30T23:40:05.249Z,101005.91
2018-12-30T23:42:32.758Z,101008.46
2018-12-30T23:45:00.298Z,101006.94
2018-12-30T23:47:27.744Z,101008.13
2018-12-30T23:49:55.210Z,101013.21
2018-12-30T23:52:22.677Z,101011.06
2018-12-30T23:54:50.121Z,101015.45
2018-12-30T23:57:17.596Z,101015.73
2018-12-30T23:59:45.067Z,101016.23
